sensor_id;sensor_type;location;lat;lon;timestamp;temperature;humidity
5459;DHT22;2752;49.992;8.422;2023-02-11T00:00:54;2.30;37.30
5459;DHT22;2752;49.992;8.422;2023-02-11T00:03:21;2.30;37.20
5459;DHT22;2752;49.992;8.422;2023-02-11T00:05:57;2.30;37.00
5459;DHT22;2752;49.992;8.422;2023-02-11T00:08:24;2.30;36.30
5459;DHT22;2752;49.992;8.422;2023-02-11T00:10:51;2.30;34.80
5459;DHT22;2752;49.992;8.422;2023-02-11T00:13:18;2.30;34.50
5459;DHT22;2752;49.992;8.422;2023-02-11T00:15:45;2.30;33.90
5459;DHT22;2752;49.992;8.422;2023-02-11T00:18:11;2.30;34.10
5459;DHT22;2752;49.992;8.422;2023-02-11T00:20:38;2.30;33.20
5459;DHT22;2752;49.992;8.422;2023-02-11T00:23:06;2.30;32.70
5459;DHT22;2752;49.992;8.422;2023-02-11T00:25:33;2.20;32.60
5459;DHT22;2752;49.992;8.422;2023-02-11T00:28:01;2.20;32.40
5459;DHT22;2752;49.992;8.422;2023-02-11T00:30:28;2.30;32.80
5459;DHT22;2752;49.992;8.422;2023-02-11T00:32:55;2.30;32.20
5459;DHT22;2752;49.992;8.422;2023-02-11T00:35:22;2.30;32.00
5459;DHT22;2752;49.992;8.422;2023-02-11T00:37:48;2.30;31.60
5459;DHT22;2752;49.992;8.422;2023-02-11T00:40:16;2.30;29.80
5459;DHT22;2752;49.992;8.422;2023-02-11T00:42:43;2.30;28.50
5459;DHT22;2752;49.992;8.422;2023-02-11T00:45:10;2.40;28.10
5459;DHT22;2752;49.992;8.422;2023-02-11T00:47:37;2.40;27.60
5459;DHT22;2752;49.992;8.422;2023-02-11T00:50:04;2.50;25.30
5459;DHT22;2752;49.992;8.422;2023-02-11T00:52:32;2.40;25.10
5459;DHT22;2752;49.992;8.422;2023-02-11T00:54:58;2.40;26.60
5459;DHT22;2752;49.992;8.422;2023-02-11T00:57:26;2.40;26.60
5459;DHT22;2752;49.992;8.422;2023-02-11T00:59:54;2.50;27.50
5459;DHT22;2752;49.992;8.422;2023-02-11T01:02:20;2.50;25.30
5459;DHT22;2752;49.992;8.422;2023-02-11T01:04:47;2.40;25.70
5459;DHT22;2752;49.992;8.422;2023-02-11T01:07:13;2.40;26.30
5459;DHT22;2752;49.992;8.422;2023-02-11T01:09:40;2.50;26.60
5459;DHT22;2752;49.992;8.422;2023-02-11T01:12:07;2.40;26.70
5459;DHT22;2752;49.992;8.422;2023-02-11T01:14:36;2.40;26.60
5459;DHT22;2752;49.992;8.422;2023-02-11T01:17:03;2.50;26.70
5459;DHT22;2752;49.992;8.422;2023-02-11T01:19:31;2.60;26.70
5459;DHT22;2752;49.992;8.422;2023-02-11T01:21:57;2.60;26.70
5459;DHT22;2752;49.992;8.422;2023-02-11T01:24:24;2.60;26.40
5459;DHT22;2752;49.992;8.422;2023-02-11T01:26:50;2.60;26.30
5459;DHT22;2752;49.992;8.422;2023-02-11T01:29:17;2.70;24.60
5459;DHT22;2752;49.992;8.422;2023-02-11T01:31:45;2.70;23.80
5459;DHT22;2752;49.992;8.422;2023-02-11T01:34:12;2.70;23.00
5459;DHT22;2752;49.992;8.422;2023-02-11T01:36:39;2.70;23.60
5459;DHT22;2752;49.992;8.422;2023-02-11T01:39:07;2.70;23.80
5459;DHT22;2752;49.992;8.422;2023-02-11T01:41:34;2.70;25.60
5459;DHT22;2752;49.992;8.422;2023-02-11T01:44:23;2.80;22.90
5459;DHT22;2752;49.992;8.422;2023-02-11T01:46:52;2.80;23.10
5459;DHT22;2752;49.992;8.422;2023-02-11T01:49:23;2.70;22.60
5459;DHT22;2752;49.992;8.422;2023-02-11T01:51:54;2.70;23.70
5459;DHT22;2752;49.992;8.422;2023-02-11T01:54:24;2.70;22.30
5459;DHT22;2752;49.992;8.422;2023-02-11T01:57:10;2.70;23.00
5459;DHT22;2752;49.992;8.422;2023-02-11T01:59:53;2.70;23.50
5459;DHT22;2752;49.992;8.422;2023-02-11T02:02:26;2.60;24.20
5459;DHT22;2752;49.992;8.422;2023-02-11T02:05:02;2.50;25.20
5459;DHT22;2752;49.992;8.422;2023-02-11T02:07:33;2.50;26.30
5459;DHT22;2752;49.992;8.422;2023-02-11T02:10:04;2.60;27.20
5459;DHT22;2752;49.992;8.422;2023-02-11T02:12:32;2.60;27.10
5459;DHT22;2752;49.992;8.422;2023-02-11T02:15:17;2.60;26.70
5459;DHT22;2752;49.992;8.422;2023-02-11T02:17:56;2.60;27.20
5459;DHT22;2752;49.992;8.422;2023-02-11T02:20:49;2.60;27.50
5459;DHT22;2752;49.992;8.422;2023-02-11T02:23:27;2.60;26.70
5459;DHT22;2752;49.992;8.422;2023-02-11T02:34:57;2.70;25.80
5459;DHT22;2752;49.992;8.422;2023-02-11T02:37:31;2.70;24.80
5459;DHT22;2752;49.992;8.422;2023-02-11T02:40:03;2.60;25.80
5459;DHT22;2752;49.992;8.422;2023-02-11T02:42:32;2.60;26.70
5459;DHT22;2752;49.992;8.422;2023-02-11T02:44:58;2.60;26.70
5459;DHT22;2752;49.992;8.422;2023-02-11T02:47:26;2.60;27.90
5459;DHT22;2752;49.992;8.422;2023-02-11T02:49:53;2.70;28.50
5459;DHT22;2752;49.992;8.422;2023-02-11T02:52:30;2.70;28.30
5459;DHT22;2752;49.992;8.422;2023-02-11T02:55:19;2.70;27.80
5459;DHT22;2752;49.992;8.422;2023-02-11T03:00:43;2.80;27.40
5459;DHT22;2752;49.992;8.422;2023-02-11T03:03:18;2.70;26.80
5459;DHT22;2752;49.992;8.422;2023-02-11T03:05:53;2.70;26.80
5459;DHT22;2752;49.992;8.422;2023-02-11T03:08:26;2.80;26.90
5459;DHT22;2752;49.992;8.422;2023-02-11T03:10:55;2.90;25.50
5459;DHT22;2752;49.992;8.422;2023-02-11T03:13:26;2.80;24.70
5459;DHT22;2752;49.992;8.422;2023-02-11T03:15:57;2.80;26.20
5459;DHT22;2752;49.992;8.422;2023-02-11T03:18:27;2.80;26.80
5459;DHT22;2752;49.992;8.422;2023-02-11T03:20:56;2.70;27.60
5459;DHT22;2752;49.992;8.422;2023-02-11T03:23:27;2.70;28.10
5459;DHT22;2752;49.992;8.422;2023-02-11T03:25:57;2.80;29.10
5459;DHT22;2752;49.992;8.422;2023-02-11T03:28:29;2.80;29.40
5459;DHT22;2752;49.992;8.422;2023-02-11T03:31:05;2.90;28.20
5459;DHT22;2752;49.992;8.422;2023-02-11T03:33:37;2.90;24.70
5459;DHT22;2752;49.992;8.422;2023-02-11T03:36:09;2.80;25.30
5459;DHT22;2752;49.992;8.422;2023-02-11T03:38:48;2.80;26.30
5459;DHT22;2752;49.992;8.422;2023-02-11T03:41:16;2.70;26.80
5459;DHT22;2752;49.992;8.422;2023-02-11T03:43:48;2.70;27.30
5459;DHT22;2752;49.992;8.422;2023-02-11T03:46:17;2.60;27.90
5459;DHT22;2752;49.992;8.422;2023-02-11T03:48:48;2.60;28.90
5459;DHT22;2752;49.992;8.422;2023-02-11T03:51:19;2.60;28.10
5459;DHT22;2752;49.992;8.422;2023-02-11T03:53:48;2.50;28.70
5459;DHT22;2752;49.992;8.422;2023-02-11T03:56:20;2.60;26.70
5459;DHT22;2752;49.992;8.422;2023-02-11T03:58:48;2.70;26.60
5459;DHT22;2752;49.992;8.422;2023-02-11T04:01:15;2.60;24.00
5459;DHT22;2752;49.992;8.422;2023-02-11T04:03:42;2.60;25.30
5459;DHT22;2752;49.992;8.422;2023-02-11T04:06:09;2.70;24.90
5459;DHT22;2752;49.992;8.422;2023-02-11T04:08:37;2.60;23.70
5459;DHT22;2752;49.992;8.422;2023-02-11T04:11:03;2.60;21.40
5459;DHT22;2752;49.992;8.422;2023-02-11T04:13:30;2.50;22.30
5459;DHT22;2752;49.992;8.422;2023-02-11T04:15:57;2.40;23.00
5459;DHT22;2752;49.992;8.422;2023-02-11T04:18:23;2.30;24.20
5459;DHT22;2752;49.992;8.422;2023-02-11T04:20:50;2.20;25.30
5459;DHT22;2752;49.992;8.422;2023-02-11T04:23:16;2.20;26.60
5459;DHT22;2752;49.992;8.422;2023-02-11T04:25:44;2.20;26.80
5459;DHT22;2752;49.992;8.422;2023-02-11T04:28:11;2.20;28.00
5459;DHT22;2752;49.992;8.422;2023-02-11T04:30:38;2.20;28.40
5459;DHT22;2752;49.992;8.422;2023-02-11T04:33:04;2.20;29.70
5459;DHT22;2752;49.992;8.422;2023-02-11T04:35:31;2.20;29.50
5459;DHT22;2752;49.992;8.422;2023-02-11T04:37:57;2.10;29.10
5459;DHT22;2752;49.992;8.422;2023-02-11T04:40:24;2.10;30.20
5459;DHT22;2752;49.992;8.422;2023-02-11T04:42:52;2.10;29.50
5459;DHT22;2752;49.992;8.422;2023-02-11T04:45:19;2.10;28.40
5459;DHT22;2752;49.992;8.422;2023-02-11T04:47:45;2.10;29.90
5459;DHT22;2752;49.992;8.422;2023-02-11T04:50:12;2.10;31.10
5459;DHT22;2752;49.992;8.422;2023-02-11T04:52:38;2.10;31.70
5459;DHT22;2752;49.992;8.422;2023-02-11T04:55:06;2.10;31.20
5459;DHT22;2752;49.992;8.422;2023-02-11T04:57:32;2.10;30.70
5459;DHT22;2752;49.992;8.422;2023-02-11T05:00:00;2.30;30.50
5459;DHT22;2752;49.992;8.422;2023-02-11T05:02:27;2.20;26.60
5459;DHT22;2752;49.992;8.422;2023-02-11T05:04:54;2.20;26.60
5459;DHT22;2752;49.992;8.422;2023-02-11T05:07:20;2.20;28.30
5459;DHT22;2752;49.992;8.422;2023-02-11T05:09:47;2.20;29.50
5459;DHT22;2752;49.992;8.422;2023-02-11T05:12:14;2.10;29.70
5459;DHT22;2752;49.992;8.422;2023-02-11T05:14:40;2.20;29.80
5459;DHT22;2752;49.992;8.422;2023-02-11T05:17:08;2.10;28.70
5459;DHT22;2752;49.992;8.422;2023-02-11T05:19:35;2.20;29.00
5459;DHT22;2752;49.992;8.422;2023-02-11T05:22:02;2.30;26.50
5459;DHT22;2752;49.992;8.422;2023-02-11T05:24:29;2.20;26.00
5459;DHT22;2752;49.992;8.422;2023-02-11T05:26:55;2.20;25.40
5459;DHT22;2752;49.992;8.422;2023-02-11T05:29:22;2.20;25.70
5459;DHT22;2752;49.992;8.422;2023-02-11T05:31:48;2.20;25.60
5459;DHT22;2752;49.992;8.422;2023-02-11T05:34:16;2.10;25.70
5459;DHT22;2752;49.992;8.422;2023-02-11T05:36:43;2.00;26.50
5459;DHT22;2752;49.992;8.422;2023-02-11T05:39:10;2.00;28.60
5459;DHT22;2752;49.992;8.422;2023-02-11T05:41:36;2.00;27.60
5459;DHT22;2752;49.992;8.422;2023-02-11T05:44:03;2.00;28.50
5459;DHT22;2752;49.992;8.422;2023-02-11T05:46:30;2.00;29.40
5459;DHT22;2752;49.992;8.422;2023-02-11T05:48:56;2.00;29.10
5459;DHT22;2752;49.992;8.422;2023-02-11T05:51:24;2.00;29.90
5459;DHT22;2752;49.992;8.422;2023-02-11T05:53:51;2.00;29.50
5459;DHT22;2752;49.992;8.422;2023-02-11T05:56:18;2.00;30.30
5459;DHT22;2752;49.992;8.422;2023-02-11T05:58:44;2.00;29.70
5459;DHT22;2752;49.992;8.422;2023-02-11T06:01:11;2.00;30.80
5459;DHT22;2752;49.992;8.422;2023-02-11T06:03:38;2.10;29.90
5459;DHT22;2752;49.992;8.422;2023-02-11T06:06:08;2.10;29.80
5459;DHT22;2752;49.992;8.422;2023-02-11T06:08:37;2.10;28.80
5459;DHT22;2752;49.992;8.422;2023-02-11T06:11:04;2.10;27.80
5459;DHT22;2752;49.992;8.422;2023-02-11T06:13:30;2.20;29.50
5459;DHT22;2752;49.992;8.422;2023-02-11T06:15:58;2.20;28.30
5459;DHT22;2752;49.992;8.422;2023-02-11T06:18:25;2.20;27.10
5459;DHT22;2752;49.992;8.422;2023-02-11T06:20:51;2.10;26.70
5459;DHT22;2752;49.992;8.422;2023-02-11T06:23:18;2.10;28.10
5459;DHT22;2752;49.992;8.422;2023-02-11T06:25:46;2.10;27.90
5459;DHT22;2752;49.992;8.422;2023-02-11T06:28:13;2.10;27.80
5459;DHT22;2752;49.992;8.422;2023-02-11T06:30:40;2.10;27.90
5459;DHT22;2752;49.992;8.422;2023-02-11T06:33:06;2.20;28.70
5459;DHT22;2752;49.992;8.422;2023-02-11T06:35:33;2.20;27.50
5459;DHT22;2752;49.992;8.422;2023-02-11T06:38:01;2.40;25.00
5459;DHT22;2752;49.992;8.422;2023-02-11T06:40:27;2.40;22.80
5459;DHT22;2752;49.992;8.422;2023-02-11T06:42:55;2.40;21.40
5459;DHT22;2752;49.992;8.422;2023-02-11T06:45:22;2.40;23.20
5459;DHT22;2752;49.992;8.422;2023-02-11T06:47:50;2.40;21.70
5459;DHT22;2752;49.992;8.422;2023-02-11T06:50:17;2.40;21.80
5459;DHT22;2752;49.992;8.422;2023-02-11T06:52:44;2.40;21.70
5459;DHT22;2752;49.992;8.422;2023-02-11T06:55:11;2.40;21.30
5459;DHT22;2752;49.992;8.422;2023-02-11T06:57:38;2.40;21.20
5459;DHT22;2752;49.992;8.422;2023-02-11T07:00:07;2.40;22.50
5459;DHT22;2752;49.992;8.422;2023-02-11T07:02:34;2.40;23.50
5459;DHT22;2752;49.992;8.422;2023-02-11T07:05:01;2.50;22.10
5459;DHT22;2752;49.992;8.422;2023-02-11T07:07:28;2.50;19.90
5459;DHT22;2752;49.992;8.422;2023-02-11T07:09:56;2.50;18.50
5459;DHT22;2752;49.992;8.422;2023-02-11T07:12:22;2.50;17.70
5459;DHT22;2752;49.992;8.422;2023-02-11T07:14:49;2.50;17.60
5459;DHT22;2752;49.992;8.422;2023-02-11T07:17:18;2.40;19.00
5459;DHT22;2752;49.992;8.422;2023-02-11T07:19:45;2.40;19.50
5459;DHT22;2752;49.992;8.422;2023-02-11T07:22:11;2.40;19.60
5459;DHT22;2752;49.992;8.422;2023-02-11T07:24:38;2.40;20.00
5459;DHT22;2752;49.992;8.422;2023-02-11T07:27:05;2.40;20.70
5459;DHT22;2752;49.992;8.422;2023-02-11T07:29:32;2.40;22.90
5459;DHT22;2752;49.992;8.422;2023-02-11T07:31:58;2.40;22.80
5459;DHT22;2752;49.992;8.422;2023-02-11T07:34:26;2.50;21.30
5459;DHT22;2752;49.992;8.422;2023-02-11T07:36:53;2.60;22.10
5459;DHT22;2752;49.992;8.422;2023-02-11T07:39:20;2.60;20.40
5459;DHT22;2752;49.992;8.422;2023-02-11T07:41:47;2.70;19.40
5459;DHT22;2752;49.992;8.422;2023-02-11T07:44:14;2.70;19.40
5459;DHT22;2752;49.992;8.422;2023-02-11T07:46:40;2.80;19.70
5459;DHT22;2752;49.992;8.422;2023-02-11T07:49:09;2.80;18.40
5459;DHT22;2752;49.992;8.422;2023-02-11T07:51:37;2.80;19.70
5459;DHT22;2752;49.992;8.422;2023-02-11T07:54:04;2.80;20.00
5459;DHT22;2752;49.992;8.422;2023-02-11T07:56:31;3.00;18.60
5459;DHT22;2752;49.992;8.422;2023-02-11T07:59:00;3.00;16.70
5459;DHT22;2752;49.992;8.422;2023-02-11T08:01:27;3.20;16.80
5459;DHT22;2752;49.992;8.422;2023-02-11T08:03:54;3.20;15.20
5459;DHT22;2752;49.992;8.422;2023-02-11T08:06:22;3.30;14.00
5459;DHT22;2752;49.992;8.422;2023-02-11T08:08:51;3.40;13.50
5459;DHT22;2752;49.992;8.422;2023-02-11T08:11:19;3.30;14.00
5459;DHT22;2752;49.992;8.422;2023-02-11T08:13:47;3.40;13.10
5459;DHT22;2752;49.992;8.422;2023-02-11T08:16:17;3.50;12.80
5459;DHT22;2752;49.992;8.422;2023-02-11T08:18:44;3.60;10.30
5459;DHT22;2752;49.992;8.422;2023-02-11T08:21:11;3.60;9.50
5459;DHT22;2752;49.992;8.422;2023-02-11T08:23:38;3.60;8.80
5459;DHT22;2752;49.992;8.422;2023-02-11T08:26:09;3.80;8.80
5459;DHT22;2752;49.992;8.422;2023-02-11T08:28:37;3.80;7.10
5459;DHT22;2752;49.992;8.422;2023-02-11T08:31:05;3.80;5.70
5459;DHT22;2752;49.992;8.422;2023-02-11T08:33:32;4.00;3.80
5459;DHT22;2752;49.992;8.422;2023-02-11T08:35:59;4.10;3.30
5459;DHT22;2752;49.992;8.422;2023-02-11T08:38:26;4.10;1.00
5459;DHT22;2752;49.992;8.422;2023-02-11T08:40:53;4.00;1.00
5459;DHT22;2752;49.992;8.422;2023-02-11T08:43:21;4.00;1.10
5459;DHT22;2752;49.992;8.422;2023-02-11T08:45:48;4.00;1.80
5459;DHT22;2752;49.992;8.422;2023-02-11T08:48:14;4.10;2.00
5459;DHT22;2752;49.992;8.422;2023-02-11T08:50:41;4.30;2.00
5459;DHT22;2752;49.992;8.422;2023-02-11T08:53:07;4.40;1.00
5459;DHT22;2752;49.992;8.422;2023-02-11T08:55:34;4.30;1.00
5459;DHT22;2752;49.992;8.422;2023-02-11T08:58:01;4.30;1.00
5459;DHT22;2752;49.992;8.422;2023-02-11T09:00:29;4.40;1.00
5459;DHT22;2752;49.992;8.422;2023-02-11T09:02:56;4.60;1.00
5459;DHT22;2752;49.992;8.422;2023-02-11T09:05:23;4.60;1.00
5459;DHT22;2752;49.992;8.422;2023-02-11T09:07:49;4.70;1.00
5459;DHT22;2752;49.992;8.422;2023-02-11T09:10:16;4.90;1.00
5459;DHT22;2752;49.992;8.422;2023-02-11T09:12:43;5.00;1.00
5459;DHT22;2752;49.992;8.422;2023-02-11T09:15:10;5.00;1.00
5459;DHT22;2752;49.992;8.422;2023-02-11T09:17:38;5.10;1.00
5459;DHT22;2752;49.992;8.422;2023-02-11T09:20:05;5.20;1.00
5459;DHT22;2752;49.992;8.422;2023-02-11T09:22:32;5.40;1.00
5459;DHT22;2752;49.992;8.422;2023-02-11T09:24:58;5.50;1.00
5459;DHT22;2752;49.992;8.422;2023-02-11T09:27:25;5.70;1.00
5459;DHT22;2752;49.992;8.422;2023-02-11T09:29:52;5.70;1.00
5459;DHT22;2752;49.992;8.422;2023-02-11T09:32:18;5.60;1.00
5459;DHT22;2752;49.992;8.422;2023-02-11T09:34:46;5.50;1.00
5459;DHT22;2752;49.992;8.422;2023-02-11T09:37:13;5.50;1.00
5459;DHT22;2752;49.992;8.422;2023-02-11T09:39:40;5.50;1.00
5459;DHT22;2752;49.992;8.422;2023-02-11T09:42:38;5.60;1.00
5459;DHT22;2752;49.992;8.422;2023-02-11T09:45:12;5.60;1.00
5459;DHT22;2752;49.992;8.422;2023-02-11T09:47:46;5.80;1.00
5459;DHT22;2752;49.992;8.422;2023-02-11T09:50:18;6.00;1.00
5459;DHT22;2752;49.992;8.422;2023-02-11T09:52:50;6.30;1.00
5459;DHT22;2752;49.992;8.422;2023-02-11T09:55:21;6.10;1.00
5459;DHT22;2752;49.992;8.422;2023-02-11T09:57:48;6.20;1.00
5459;DHT22;2752;49.992;8.422;2023-02-11T10:00:18;6.20;1.00
5459;DHT22;2752;49.992;8.422;2023-02-11T10:05:55;6.50;1.00
5459;DHT22;2752;49.992;8.422;2023-02-11T10:08:32;6.50;1.00
5459;DHT22;2752;49.992;8.422;2023-02-11T10:11:04;6.80;1.00
5459;DHT22;2752;49.992;8.422;2023-02-11T10:13:48;6.90;1.00
5459;DHT22;2752;49.992;8.422;2023-02-11T10:16:27;6.90;1.00
5459;DHT22;2752;49.992;8.422;2023-02-11T10:19:18;6.90;1.00
5459;DHT22;2752;49.992;8.422;2023-02-11T10:21:56;7.00;1.00
5459;DHT22;2752;49.992;8.422;2023-02-11T10:24:24;7.00;1.00
5459;DHT22;2752;49.992;8.422;2023-02-11T10:26:53;7.10;1.00
5459;DHT22;2752;49.992;8.422;2023-02-11T10:29:32;7.30;1.00
5459;DHT22;2752;49.992;8.422;2023-02-11T10:32:04;7.40;1.00
5459;DHT22;2752;49.992;8.422;2023-02-11T10:34:32;7.40;1.00
5459;DHT22;2752;49.992;8.422;2023-02-11T10:37:00;7.50;1.00
5459;DHT22;2752;49.992;8.422;2023-02-11T10:39:27;7.50;1.00
5459;DHT22;2752;49.992;8.422;2023-02-11T10:41:56;7.50;1.00
5459;DHT22;2752;49.992;8.422;2023-02-11T10:44:27;7.60;1.00
5459;DHT22;2752;49.992;8.422;2023-02-11T10:46:56;7.70;1.00
5459;DHT22;2752;49.992;8.422;2023-02-11T10:49:36;7.80;1.00
5459;DHT22;2752;49.992;8.422;2023-02-11T10:52:19;7.80;1.00
5459;DHT22;2752;49.992;8.422;2023-02-11T10:54:57;7.70;1.00
5459;DHT22;2752;49.992;8.422;2023-02-11T10:57:27;7.80;1.00
5459;DHT22;2752;49.992;8.422;2023-02-11T10:59:57;7.90;1.00
5459;DHT22;2752;49.992;8.422;2023-02-11T11:02:28;7.90;1.00
5459;DHT22;2752;49.992;8.422;2023-02-11T11:05:00;8.00;1.00
5459;DHT22;2752;49.992;8.422;2023-02-11T11:07:30;8.00;1.00
5459;DHT22;2752;49.992;8.422;2023-02-11T11:10:00;8.10;1.00
5459;DHT22;2752;49.992;8.422;2023-02-11T11:12:32;8.00;1.00
5459;DHT22;2752;49.992;8.422;2023-02-11T11:15:10;8.00;1.00
5459;DHT22;2752;49.992;8.422;2023-02-11T11:17:38;8.00;1.00
5459;DHT22;2752;49.992;8.422;2023-02-11T11:20:20;8.00;1.00
5459;DHT22;2752;49.992;8.422;2023-02-11T11:22:50;8.00;1.00
5459;DHT22;2752;49.992;8.422;2023-02-11T11:25:23;7.80;1.00
5459;DHT22;2752;49.992;8.422;2023-02-11T11:27:53;7.70;1.00
5459;DHT22;2752;49.992;8.422;2023-02-11T11:30:21;7.80;1.00
5459;DHT22;2752;49.992;8.422;2023-02-11T11:32:49;7.90;1.00
5459;DHT22;2752;49.992;8.422;2023-02-11T11:35:24;7.90;1.00
5459;DHT22;2752;49.992;8.422;2023-02-11T11:37:55;7.90;1.00
5459;DHT22;2752;49.992;8.422;2023-02-11T11:40:26;8.00;1.00
5459;DHT22;2752;49.992;8.422;2023-02-11T11:43:04;8.10;1.00
5459;DHT22;2752;49.992;8.422;2023-02-11T11:45:31;8.10;1.00
5459;DHT22;2752;49.992;8.422;2023-02-11T11:48:00;8.10;1.00
5459;DHT22;2752;49.992;8.422;2023-02-11T11:50:32;8.10;1.00
5459;DHT22;2752;49.992;8.422;2023-02-11T11:53:04;8.10;1.00
5459;DHT22;2752;49.992;8.422;2023-02-11T11:55:37;8.10;1.00
5459;DHT22;2752;49.992;8.422;2023-02-11T11:58:12;8.10;1.00
5459;DHT22;2752;49.992;8.422;2023-02-11T12:00:46;8.20;1.00
5459;DHT22;2752;49.992;8.422;2023-02-11T12:03:32;8.20;1.00
5459;DHT22;2752;49.992;8.422;2023-02-11T12:06:13;8.40;1.00
5459;DHT22;2752;49.992;8.422;2023-02-11T12:08:54;8.60;1.00
5459;DHT22;2752;49.992;8.422;2023-02-11T12:11:28;8.70;1.00
5459;DHT22;2752;49.992;8.422;2023-02-11T12:14:05;8.80;1.00
5459;DHT22;2752;49.992;8.422;2023-02-11T12:16:43;8.90;1.00
5459;DHT22;2752;49.992;8.422;2023-02-11T12:19:40;8.90;1.00
5459;DHT22;2752;49.992;8.422;2023-02-11T12:22:11;9.00;1.00
5459;DHT22;2752;49.992;8.422;2023-02-11T12:24:55;9.10;1.00
5459;DHT22;2752;49.992;8.422;2023-02-11T12:27:39;9.20;1.00
5459;DHT22;2752;49.992;8.422;2023-02-11T12:30:34;9.30;1.00
5459;DHT22;2752;49.992;8.422;2023-02-11T12:33:12;9.20;1.00
5459;DHT22;2752;49.992;8.422;2023-02-11T12:35:49;9.20;1.00
5459;DHT22;2752;49.992;8.422;2023-02-11T12:38:35;9.30;1.00
5459;DHT22;2752;49.992;8.422;2023-02-11T12:41:14;9.20;1.00
5459;DHT22;2752;49.992;8.422;2023-02-11T12:43:43;9.00;1.00
5459;DHT22;2752;49.992;8.422;2023-02-11T12:46:31;9.00;1.00
5459;DHT22;2752;49.992;8.422;2023-02-11T12:49:13;8.90;1.00
5459;DHT22;2752;49.992;8.422;2023-02-11T12:52:02;8.80;1.00
5459;DHT22;2752;49.992;8.422;2023-02-11T12:54:32;8.70;1.00
5459;DHT22;2752;49.992;8.422;2023-02-11T12:57:06;8.80;1.00
5459;DHT22;2752;49.992;8.422;2023-02-11T12:59:43;8.80;1.00
5459;DHT22;2752;49.992;8.422;2023-02-11T13:02:20;8.70;1.00
5459;DHT22;2752;49.992;8.422;2023-02-11T13:04:52;8.70;1.00
5459;DHT22;2752;49.992;8.422;2023-02-11T13:07:22;8.70;1.00
5459;DHT22;2752;49.992;8.422;2023-02-11T13:09:54;8.80;1.00
5459;DHT22;2752;49.992;8.422;2023-02-11T13:12:24;9.00;1.00
5459;DHT22;2752;49.992;8.422;2023-02-11T13:15:13;9.10;1.00
5459;DHT22;2752;49.992;8.422;2023-02-11T13:17:49;9.10;1.00
5459;DHT22;2752;49.992;8.422;2023-02-11T13:20:29;9.10;1.00
5459;DHT22;2752;49.992;8.422;2023-02-11T13:23:02;9.10;1.00
5459;DHT22;2752;49.992;8.422;2023-02-11T13:25:35;9.20;1.00
5459;DHT22;2752;49.992;8.422;2023-02-11T13:28:18;9.20;1.00
5459;DHT22;2752;49.992;8.422;2023-02-11T13:30:46;9.10;1.00
5459;DHT22;2752;49.992;8.422;2023-02-11T13:33:30;9.20;1.00
5459;DHT22;2752;49.992;8.422;2023-02-11T13:36:18;9.20;1.00
5459;DHT22;2752;49.992;8.422;2023-02-11T13:38:57;9.30;1.00
5459;DHT22;2752;49.992;8.422;2023-02-11T13:41:37;9.20;1.00
5459;DHT22;2752;49.992;8.422;2023-02-11T13:44:22;9.40;1.00
5459;DHT22;2752;49.992;8.422;2023-02-11T13:46:54;9.40;1.00
5459;DHT22;2752;49.992;8.422;2023-02-11T13:49:23;9.40;1.00
5459;DHT22;2752;49.992;8.422;2023-02-11T13:51:52;9.40;1.00
5459;DHT22;2752;49.992;8.422;2023-02-11T13:54:22;9.40;1.00
5459;DHT22;2752;49.992;8.422;2023-02-11T13:57:21;9.30;1.00
5459;DHT22;2752;49.992;8.422;2023-02-11T13:59:50;9.40;1.00
5459;DHT22;2752;49.992;8.422;2023-02-11T14:02:27;9.20;1.00
5459;DHT22;2752;49.992;8.422;2023-02-11T14:05:25;9.20;1.00
5459;DHT22;2752;49.992;8.422;2023-02-11T14:08:19;9.10;1.00
5459;DHT22;2752;49.992;8.422;2023-02-11T14:11:06;9.10;1.00
5459;DHT22;2752;49.992;8.422;2023-02-11T14:14:01;9.10;1.00
5459;DHT22;2752;49.992;8.422;2023-02-11T14:16:29;9.10;1.00
5459;DHT22;2752;49.992;8.422;2023-02-11T14:18:59;9.10;1.00
5459;DHT22;2752;49.992;8.422;2023-02-11T14:21:37;9.10;1.00
5459;DHT22;2752;49.992;8.422;2023-02-11T14:27:16;9.10;1.00
5459;DHT22;2752;49.992;8.422;2023-02-11T14:29:50;9.10;1.00
5459;DHT22;2752;49.992;8.422;2023-02-11T14:32:33;9.00;1.00
5459;DHT22;2752;49.992;8.422;2023-02-11T14:35:07;9.00;1.00
5459;DHT22;2752;49.992;8.422;2023-02-11T14:37:39;8.80;1.00
5459;DHT22;2752;49.992;8.422;2023-02-11T14:40:20;8.80;1.00
5459;DHT22;2752;49.992;8.422;2023-02-11T14:42:49;8.90;1.00
5459;DHT22;2752;49.992;8.422;2023-02-11T14:45:20;8.90;1.00
5459;DHT22;2752;49.992;8.422;2023-02-11T14:47:54;8.80;1.00
5459;DHT22;2752;49.992;8.422;2023-02-11T14:50:25;8.80;1.00
5459;DHT22;2752;49.992;8.422;2023-02-11T14:52:53;8.80;1.00
5459;DHT22;2752;49.992;8.422;2023-02-11T14:55:28;8.80;1.00
5459;DHT22;2752;49.992;8.422;2023-02-11T14:58:14;8.80;1.00
5459;DHT22;2752;49.992;8.422;2023-02-11T15:00:53;8.80;1.00
5459;DHT22;2752;49.992;8.422;2023-02-11T15:03:30;8.80;1.00
5459;DHT22;2752;49.992;8.422;2023-02-11T15:05:58;8.80;1.00
5459;DHT22;2752;49.992;8.422;2023-02-11T15:08:26;8.80;1.00
5459;DHT22;2752;49.992;8.422;2023-02-11T15:10:54;8.90;1.00
5459;DHT22;2752;49.992;8.422;2023-02-11T15:13:24;8.90;1.00
5459;DHT22;2752;49.992;8.422;2023-02-11T15:15:58;8.80;1.00
5459;DHT22;2752;49.992;8.422;2023-02-11T15:18:38;8.80;1.00
5459;DHT22;2752;49.992;8.422;2023-02-11T15:21:06;8.80;1.00
5459;DHT22;2752;49.992;8.422;2023-02-11T15:23:33;8.80;1.00
5459;DHT22;2752;49.992;8.422;2023-02-11T15:26:00;8.80;1.00
5459;DHT22;2752;49.992;8.422;2023-02-11T15:28:31;8.80;1.00
5459;DHT22;2752;49.992;8.422;2023-02-11T15:31:01;8.70;1.00
5459;DHT22;2752;49.992;8.422;2023-02-11T15:33:30;8.90;1.00
5459;DHT22;2752;49.992;8.422;2023-02-11T15:35:58;8.80;1.00
5459;DHT22;2752;49.992;8.422;2023-02-11T15:38:25;8.80;1.00
5459;DHT22;2752;49.992;8.422;2023-02-11T15:40:54;8.80;1.00
5459;DHT22;2752;49.992;8.422;2023-02-11T15:43:21;8.80;1.00
5459;DHT22;2752;49.992;8.422;2023-02-11T15:45:57;8.80;1.00
5459;DHT22;2752;49.992;8.422;2023-02-11T15:48:33;8.80;1.00
5459;DHT22;2752;49.992;8.422;2023-02-11T15:51:04;8.70;1.00
5459;DHT22;2752;49.992;8.422;2023-02-11T15:53:37;8.70;1.00
5459;DHT22;2752;49.992;8.422;2023-02-11T15:56:10;8.60;1.00
5459;DHT22;2752;49.992;8.422;2023-02-11T15:58:39;8.70;1.00
5459;DHT22;2752;49.992;8.422;2023-02-11T16:01:07;8.60;1.00
5459;DHT22;2752;49.992;8.422;2023-02-11T16:03:36;8.60;1.00
5459;DHT22;2752;49.992;8.422;2023-02-11T16:06:20;8.60;1.00
5459;DHT22;2752;49.992;8.422;2023-02-11T16:08:59;8.50;1.00
5459;DHT22;2752;49.992;8.422;2023-02-11T16:11:28;8.40;1.00
5459;DHT22;2752;49.992;8.422;2023-02-11T16:13:57;8.40;1.00
5459;DHT22;2752;49.992;8.422;2023-02-11T16:16:27;8.30;1.00
5459;DHT22;2752;49.992;8.422;2023-02-11T16:18:58;8.30;1.00
5459;DHT22;2752;49.992;8.422;2023-02-11T16:21:29;8.30;1.00
5459;DHT22;2752;49.992;8.422;2023-02-11T16:23:58;8.30;1.00
5459;DHT22;2752;49.992;8.422;2023-02-11T16:26:29;8.30;1.00
5459;DHT22;2752;49.992;8.422;2023-02-11T16:29:04;8.20;1.00
5459;DHT22;2752;49.992;8.422;2023-02-11T16:31:33;8.10;1.00
5459;DHT22;2752;49.992;8.422;2023-02-11T16:34:01;8.10;1.00
5459;DHT22;2752;49.992;8.422;2023-02-11T16:36:28;8.10;1.00
5459;DHT22;2752;49.992;8.422;2023-02-11T16:38:55;8.00;1.00
5459;DHT22;2752;49.992;8.422;2023-02-11T16:41:21;8.00;1.00
5459;DHT22;2752;49.992;8.422;2023-02-11T16:43:48;7.90;1.00
5459;DHT22;2752;49.992;8.422;2023-02-11T16:46:14;7.90;1.00
5459;DHT22;2752;49.992;8.422;2023-02-11T16:48:41;7.90;1.00
5459;DHT22;2752;49.992;8.422;2023-02-11T16:51:11;7.90;1.00
5459;DHT22;2752;49.992;8.422;2023-02-11T16:53:38;7.90;1.00
5459;DHT22;2752;49.992;8.422;2023-02-11T16:56:05;7.80;1.00
5459;DHT22;2752;49.992;8.422;2023-02-11T16:58:31;7.80;1.00
5459;DHT22;2752;49.992;8.422;2023-02-11T17:00:58;7.80;1.00
5459;DHT22;2752;49.992;8.422;2023-02-11T17:03:25;7.80;1.00
5459;DHT22;2752;49.992;8.422;2023-02-11T17:05:53;7.80;1.00
5459;DHT22;2752;49.992;8.422;2023-02-11T17:08:21;7.80;1.00